Time;durP1;ratioP1;P1;durP2;ratioP2;P2;SDS_P1;SDS_P2;PMS_P1;PMS_P2;Temp;Humidity;BMP_temperature;BMP_pressure;BME280_temperature;BME280_humidity;BME280_pressure;Samples;Min_cycle;Max_cycle;Signal;HPM_P1;HPM_P2
2023/02/26 00:01:31;;;;;;;3.15;0.75;;;5.40;99.90;;;;;;4868902;29;20028;-81
2023/02/26 00:03:59;;;;;;;4.22;0.60;;;5.30;99.90;;;;;;4869145;29;20486;-81
2023/02/26 00:06:26;;;;;;;2.42;0.80;;;5.30;99.90;;;;;;4871100;29;20081;-82
2023/02/26 00:08:52;;;;;;;2.13;0.70;;;5.30;99.90;;;;;;4883286;29;20033;-81
2023/02/26 00:11:18;;;;;;;2.03;0.65;;;5.30;99.90;;;;;;4870664;29;20070;-82
2023/02/26 00:13:44;;;;;;;2.15;0.80;;;5.20;99.90;;;;;;4885464;29;20475;-82
2023/02/26 00:16:21;;;;;;;2.42;0.65;;;5.20;99.90;;;;;;4868532;29;20025;-82
2023/02/26 00:18:49;;;;;;;2.90;0.70;;;5.20;99.90;;;;;;4881110;29;20044;-82
2023/02/26 00:21:19;;;;;;;2.58;0.55;;;5.20;99.90;;;;;;4887378;29;20032;-79
2023/02/26 00:23:45;;;;;;;2.45;0.68;;;5.20;99.90;;;;;;4887257;29;20397;-79
2023/02/26 00:26:11;;;;;;;1.15;0.45;;;5.20;99.90;;;;;;4903871;29;20040;-79
2023/02/26 00:28:49;;;;;;;1.55;0.68;;;5.10;99.90;;;;;;4886670;29;20037;-82
2023/02/26 00:31:17;;;;;;;3.40;1.00;;;5.10;99.90;;;;;;4877761;29;20495;-80
2023/02/26 00:33:43;;;;;;;4.03;0.70;;;5.10;99.90;;;;;;4883863;29;20061;-80
2023/02/26 00:36:18;;;;;;;2.95;0.88;;;5.10;99.90;;;;;;4890636;29;20039;-82
2023/02/26 00:39:21;;;;;;;1.33;0.70;;;5.10;99.90;;;;;;4872058;29;20109;-82
2023/02/26 00:41:51;;;;;;;2.13;0.80;;;5.00;99.90;;;;;;4867518;29;20085;-82
2023/02/26 00:44:46;;;;;;;2.35;0.65;;;5.00;99.90;;;;;;4889607;29;20104;-82
2023/02/26 00:47:52;;;;;;;2.80;0.70;;;5.00;99.90;;;;;;4884738;29;20029;-82
2023/02/26 00:50:21;;;;;;;1.90;0.70;;;5.00;99.90;;;;;;4867996;29;20081;-77
2023/02/26 00:52:47;;;;;;;1.95;1.05;;;4.90;99.90;;;;;;4867471;29;20030;-77
2023/02/26 00:55:13;;;;;;;2.28;0.60;;;4.90;99.90;;;;;;4868119;29;20024;-77
2023/02/26 00:57:39;;;;;;;3.28;0.85;;;4.90;99.90;;;;;;4867850;29;20029;-77
2023/02/26 01:00:06;;;;;;;1.23;0.47;;;4.90;99.90;;;;;;4868075;29;20032;-77
2023/02/26 01:02:34;;;;;;;3.17;0.77;;;4.90;99.90;;;;;;4884373;29;20027;-79
2023/02/26 01:05:01;;;;;;;1.98;0.60;;;4.80;99.90;;;;;;4884569;29;20056;-78
2023/02/26 01:07:28;;;;;;;3.33;0.93;;;4.80;99.90;;;;;;4885116;29;20032;-78
2023/02/26 01:09:54;;;;;;;3.50;0.68;;;4.70;99.90;;;;;;4868117;29;20033;-78
2023/02/26 01:12:20;;;;;;;4.32;0.80;;;4.70;99.90;;;;;;4882577;29;20028;-78
2023/02/26 01:14:47;;;;;;;2.38;0.70;;;4.70;99.90;;;;;;4884307;29;20025;-78
2023/02/26 01:17:18;;;;;;;2.45;0.70;;;4.70;99.90;;;;;;4884809;29;20080;-79
2023/02/26 01:20:05;;;;;;;1.75;0.65;;;4.70;99.90;;;;;;4886312;29;20031;-77
2023/02/26 01:22:47;;;;;;;2.45;0.88;;;4.70;99.90;;;;;;4885815;29;20029;-78
2023/02/26 01:25:33;;;;;;;1.88;0.60;;;4.70;99.90;;;;;;4884172;29;20021;-80
2023/02/26 01:27:59;;;;;;;1.13;0.50;;;4.70;99.90;;;;;;4884225;29;20025;-80
2023/02/26 01:30:28;;;;;;;1.88;0.68;;;4.70;99.90;;;;;;4867118;29;20033;-81
2023/02/26 01:33:29;;;;;;;2.67;0.70;;;4.70;99.90;;;;;;4883938;29;20074;-81
2023/02/26 01:36:02;;;;;;;1.77;0.50;;;4.70;99.90;;;;;;4876888;29;20385;-81
2023/02/26 01:38:50;;;;;;;2.75;0.60;;;4.60;99.90;;;;;;4899963;29;20028;-81
2023/02/26 01:41:34;;;;;;;2.75;1.15;;;4.60;99.90;;;;;;4867413;29;20037;-81
2023/02/26 01:44:17;;;;;;;3.53;1.05;;;4.60;99.90;;;;;;4891508;29;20108;-80
2023/02/26 01:47:13;;;;;;;2.67;0.63;;;4.50;99.90;;;;;;4883498;29;20510;-80
2023/02/26 01:49:39;;;;;;;1.60;0.60;;;4.60;99.90;;;;;;4901428;29;20103;-78
2023/02/26 01:52:26;;;;;;;2.53;0.80;;;4.60;99.90;;;;;;4884220;29;20494;-79
2023/02/26 01:54:52;;;;;;;2.28;0.88;;;4.50;99.90;;;;;;4883441;29;20583;-79
2023/02/26 01:57:20;;;;;;;1.73;0.98;;;4.50;99.90;;;;;;4883389;29;20202;-80
2023/02/26 01:59:48;;;;;;;2.20;0.93;;;4.50;99.90;;;;;;4866979;29;20115;-77
2023/02/26 02:02:18;;;;;;;2.35;0.80;;;4.50;99.90;;;;;;4883539;29;20546;-79
2023/02/26 02:04:45;;;;;;;2.88;1.02;;;4.50;99.90;;;;;;4882743;29;20029;-79
2023/02/26 02:07:11;;;;;;;2.08;0.68;;;4.50;99.90;;;;;;4880317;29;20025;-79
2023/02/26 02:09:37;;;;;;;1.10;0.50;;;4.50;99.90;;;;;;4870064;29;20029;-77
2023/02/26 02:12:34;;;;;;;2.63;1.05;;;4.40;99.90;;;;;;4868591;29;20044;-78
2023/02/26 02:15:41;;;;;;;2.47;0.70;;;4.40;99.90;;;;;;4892087;29;20598;-78
2023/02/26 02:18:28;;;;;;;3.65;1.13;;;4.40;99.90;;;;;;4902003;29;20063;-78
2023/02/26 02:21:37;;;;;;;1.35;0.50;;;4.40;99.90;;;;;;4901920;29;20059;-78
2023/02/26 02:24:06;;;;;;;1.85;0.70;;;4.30;99.90;;;;;;4859122;29;20040;-78
2023/02/26 02:26:58;;;;;;;3.03;0.80;;;4.20;99.90;;;;;;4901815;29;20088;-81
2023/02/26 02:30:27;;;;;;;3.30;0.85;;;4.20;99.90;;;;;;4885355;29;20032;-81
2023/02/26 02:33:00;;;;;;;2.60;0.93;;;4.20;99.90;;;;;;4841386;29;20040;-82
2023/02/26 02:35:41;;;;;;;1.88;0.75;;;4.20;99.90;;;;;;4901744;29;20045;-84
2023/02/26 02:38:25;;;;;;;3.85;1.27;;;4.20;99.90;;;;;;4880325;29;20072;-77
2023/02/26 02:40:59;;;;;;;1.02;0.43;;;4.10;99.90;;;;;;4883342;29;20056;-80
2023/02/26 02:43:31;;;;;;;2.47;0.70;;;4.10;99.90;;;;;;4887570;29;20100;-81
2023/02/26 02:46:04;;;;;;;1.52;0.70;;;4.10;99.90;;;;;;4883204;29;20029;-79
2023/02/26 02:48:55;;;;;;;3.22;0.82;;;4.00;99.90;;;;;;4866169;29;20108;-78
2023/02/26 02:51:27;;;;;;;1.55;0.70;;;4.10;99.90;;;;;;4875451;29;20041;-77
2023/02/26 02:54:01;;;;;;;1.98;0.70;;;4.00;99.90;;;;;;4866731;29;20032;-78
2023/02/26 02:56:55;;;;;;;1.70;0.65;;;4.00;99.90;;;;;;4882905;29;20025;-77
2023/02/26 02:59:23;;;;;;;1.45;0.70;;;4.00;99.90;;;;;;4864200;29;20045;-77
2023/02/26 03:02:06;;;;;;;1.35;0.60;;;4.00;99.90;;;;;;4866408;29;20037;-80
2023/02/26 03:04:33;;;;;;;1.33;0.70;;;4.00;99.90;;;;;;4883008;29;20021;-79
2023/02/26 03:06:58;;;;;;;2.30;0.80;;;3.90;99.90;;;;;;4889709;29;20043;-77
2023/02/26 03:09:24;;;;;;;2.15;0.98;;;4.00;99.90;;;;;;4885730;29;20538;-78
2023/02/26 03:11:50;;;;;;;2.75;0.73;;;3.90;99.90;;;;;;4884539;29;20033;-78
2023/02/26 03:14:17;;;;;;;1.50;0.73;;;3.90;99.90;;;;;;4882901;29;20111;-78
2023/02/26 03:17:01;;;;;;;2.50;0.70;;;3.90;99.90;;;;;;4868009;29;20058;-78
2023/02/26 03:20:05;;;;;;;2.47;0.68;;;3.90;99.90;;;;;;4904225;29;20528;-78
2023/02/26 03:22:30;;;;;;;2.92;0.82;;;3.90;99.90;;;;;;4905059;29;20029;-76
2023/02/26 03:25:15;;;;;;;1.85;0.55;;;3.80;99.90;;;;;;4904942;29;20057;-76
2023/02/26 03:27:52;;;;;;;1.83;0.50;;;3.80;99.90;;;;;;4887828;29;20025;-76
2023/02/26 03:30:23;;;;;;;1.95;0.70;;;3.80;99.90;;;;;;4904891;29;20064;-78
2023/02/26 03:33:02;;;;;;;1.80;0.70;;;3.80;99.90;;;;;;4888188;29;20057;-79
2023/02/26 03:35:44;;;;;;;2.47;0.90;;;3.80;99.90;;;;;;4888018;29;20036;-79
2023/02/26 03:38:16;;;;;;;2.55;0.80;;;3.80;99.90;;;;;;4893328;29;20029;-78
2023/02/26 03:40:57;;;;;;;2.03;0.65;;;3.80;99.90;;;;;;4854989;29;20057;-79
2023/02/26 03:43:39;;;;;;;0.93;0.50;;;3.80;99.90;;;;;;4855546;29;20052;-79
2023/02/26 03:46:10;;;;;;;1.02;0.60;;;3.80;99.90;;;;;;4850970;29;20029;-79
2023/02/26 03:48:36;;;;;;;1.38;0.50;;;3.80;99.90;;;;;;4867077;29;20031;-78
2023/02/26 03:51:10;;;;;;;1.30;0.52;;;3.80;99.90;;;;;;4850482;29;20025;-79
2023/02/26 03:53:59;;;;;;;1.85;0.77;;;3.80;99.90;;;;;;4867109;29;20029;-79
2023/02/26 03:56:36;;;;;;;2.70;0.85;;;3.70;99.90;;;;;;4849945;29;20038;-78
2023/02/26 03:59:02;;;;;;;3.30;0.63;;;3.70;99.90;;;;;;4850598;29;20040;-77
2023/02/26 04:01:35;;;;;;;1.35;0.60;;;3.70;99.90;;;;;;4866920;29;20028;-80
2023/02/26 04:04:06;;;;;;;3.25;0.85;;;3.70;99.90;;;;;;4867136;29;20428;-80
2023/02/26 04:06:33;;;;;;;1.27;0.50;;;3.70;99.90;;;;;;4870069;29;20566;-77
2023/02/26 04:09:00;;;;;;;1.55;0.57;;;3.60;99.90;;;;;;4872398;29;20036;-79
2023/02/26 04:11:26;;;;;;;1.95;0.60;;;3.60;99.90;;;;;;4868018;29;20403;-78
2023/02/26 04:13:52;;;;;;;3.60;0.73;;;3.60;99.90;;;;;;4850378;29;20037;-79
2023/02/26 04:16:18;;;;;;;2.58;0.65;;;3.60;99.90;;;;;;4850250;29;20048;-79
2023/02/26 04:18:44;;;;;;;1.85;0.68;;;3.60;99.90;;;;;;4862514;29;20040;-80
2023/02/26 04:21:14;;;;;;;4.53;0.85;;;3.60;99.90;;;;;;4868802;29;20029;-79
2023/02/26 04:23:40;;;;;;;1.38;0.40;;;3.60;99.90;;;;;;4885194;29;20033;-79
2023/02/26 04:26:06;;;;;;;2.00;0.70;;;3.60;99.90;;;;;;4885391;29;20031;-79
2023/02/26 04:28:33;;;;;;;1.40;0.60;;;3.60;99.90;;;;;;4884005;29;20126;-78
2023/02/26 04:30:59;;;;;;;1.77;0.55;;;3.60;99.90;;;;;;4868390;29;20041;-80
2023/02/26 04:33:26;;;;;;;2.03;0.68;;;3.60;99.90;;;;;;4868420;29;20033;-80
2023/02/26 04:35:51;;;;;;;0.93;0.57;;;3.50;99.90;;;;;;4869596;29;20414;-79
2023/02/26 04:38:17;;;;;;;1.83;0.60;;;3.50;99.90;;;;;;4860904;29;20034;-78
2023/02/26 04:40:43;;;;;;;1.63;0.70;;;3.50;99.90;;;;;;4849643;29;20083;-77
2023/02/26 04:43:09;;;;;;;2.08;0.57;;;3.50;99.90;;;;;;4871096;29;20070;-78
2023/02/26 04:45:35;;;;;;;2.78;0.68;;;;;;;;;;4849753;29;20029;-78
2023/02/26 04:48:00;;;;;;;3.47;0.80;;;3.40;99.90;;;;;;4866194;29;20058;-78
2023/02/26 04:50:26;;;;;;;1.95;0.70;;;3.40;99.90;;;;;;4866217;29;20033;-78
2023/02/26 04:52:52;;;;;;;2.83;0.70;;;3.40;99.90;;;;;;4866178;29;20034;-78
2023/02/26 04:55:17;;;;;;;2.42;0.60;;;3.30;99.90;;;;;;4856477;29;20093;-78
2023/02/26 04:57:43;;;;;;;0.80;0.50;;;3.30;99.90;;;;;;4871352;29;20036;-76
2023/02/26 05:00:09;;;;;;;1.98;0.77;;;3.30;99.90;;;;;;4866093;29;20837;-76
2023/02/26 05:02:35;;;;;;;1.92;0.65;;;3.40;99.90;;;;;;4849422;29;20049;-78
2023/02/26 05:05:01;;;;;;;2.30;0.68;;;3.40;99.90;;;;;;4866093;29;20435;-78
2023/02/26 05:07:27;;;;;;;1.17;0.50;;;3.40;99.90;;;;;;4866514;29;20033;-77
2023/02/26 05:09:52;;;;;;;3.35;0.60;;;3.40;99.90;;;;;;4866089;29;20026;-78
2023/02/26 05:12:18;;;;;;;1.85;0.63;;;3.40;99.90;;;;;;4851214;29;20030;-78
2023/02/26 05:14:44;;;;;;;1.63;0.60;;;3.40;99.90;;;;;;4866037;29;20021;-80
2023/02/26 05:17:10;;;;;;;3.70;0.70;;;3.30;99.90;;;;;;4865888;29;20081;-80
2023/02/26 05:19:36;;;;;;;2.45;0.63;;;3.30;99.90;;;;;;4867763;29;20577;-80
2023/02/26 05:22:01;;;;;;;1.63;0.80;;;3.30;99.90;;;;;;4867665;29;20057;-80
2023/02/26 05:24:27;;;;;;;2.63;0.57;;;3.30;99.90;;;;;;4867690;29;20025;-80
2023/02/26 05:26:52;;;;;;;1.17;0.70;;;3.20;99.90;;;;;;4883953;29;20029;-79
2023/02/26 05:29:18;;;;;;;1.13;0.57;;;3.20;99.90;;;;;;4884148;29;20048;-80
2023/02/26 05:31:44;;;;;;;0.57;0.47;;;3.20;99.90;;;;;;4883957;29;20041;-78
2023/02/26 05:34:10;;;;;;;1.02;0.70;;;3.20;99.90;;;;;;4884038;29;20077;-80
2023/02/26 05:36:35;;;;;;;1.92;0.90;;;3.10;99.90;;;;;;4884152;29;20025;-79
2023/02/26 05:39:01;;;;;;;1.85;0.60;;;3.10;99.90;;;;;;4866539;29;20507;-80
2023/02/26 05:41:27;;;;;;;1.40;0.50;;;3.10;99.90;;;;;;4883757;29;20395;-79
2023/02/26 05:43:52;;;;;;;2.05;0.80;;;3.00;99.90;;;;;;4888766;29;20064;-79
2023/02/26 05:46:18;;;;;;;4.13;0.68;;;3.10;99.90;;;;;;4884000;29;20033;-79
2023/02/26 05:48:44;;;;;;;1.55;0.60;;;3.00;99.90;;;;;;4889998;29;20080;-78
2023/02/26 05:51:09;;;;;;;1.13;0.50;;;3.10;99.90;;;;;;4902521;29;20032;-78
2023/02/26 05:53:35;;;;;;;1.15;0.90;;;3.00;99.90;;;;;;4902429;29;20028;-79
2023/02/26 05:56:01;;;;;;;2.30;0.60;;;3.00;99.90;;;;;;4885466;29;20035;-79
2023/02/26 05:58:26;;;;;;;3.65;0.75;;;3.00;99.90;;;;;;4902063;29;20051;-79
2023/02/26 06:00:52;;;;;;;1.02;0.40;;;3.00;99.90;;;;;;4902323;29;20035;-79
2023/02/26 06:03:18;;;;;;;2.15;0.52;;;3.00;99.90;;;;;;4885588;29;20027;-77
2023/02/26 06:05:43;;;;;;;2.13;0.57;;;3.00;99.90;;;;;;4902333;29;20012;-77
2023/02/26 06:08:11;;;;;;;1.92;0.63;;;3.00;99.90;;;;;;4889036;29;20032;-77
2023/02/26 06:10:37;;;;;;;2.65;0.60;;;3.00;99.90;;;;;;4885381;29;20032;-77
2023/02/26 06:13:02;;;;;;;0.70;0.32;;;3.00;99.90;;;;;;4883227;29;20495;-77
2023/02/26 06:15:28;;;;;;;1.15;0.57;;;3.00;99.90;;;;;;4883550;29;20061;-77
2023/02/26 06:17:54;;;;;;;1.23;0.60;;;3.00;99.90;;;;;;4889193;29;20032;-77
2023/02/26 06:20:19;;;;;;;1.88;0.55;;;2.90;99.90;;;;;;4885492;29;20024;-77
2023/02/26 06:22:45;;;;;;;1.80;0.60;;;2.90;99.90;;;;;;4885569;29;20032;-76
2023/02/26 06:25:11;;;;;;;1.77;0.55;;;2.80;99.90;;;;;;4902034;29;20056;-78
2023/02/26 06:27:36;;;;;;;2.38;0.50;;;2.80;99.90;;;;;;4901812;29;20024;-79
2023/02/26 06:30:03;;;;;;;1.70;0.70;;;2.90;99.90;;;;;;4885118;29;20080;-79
2023/02/26 06:32:29;;;;;;;4.35;0.70;;;2.80;99.90;;;;;;4896279;29;20104;-79
2023/02/26 06:34:55;;;;;;;0.90;0.50;;;2.90;99.90;;;;;;4895545;29;20506;-79
2023/02/26 06:48:32;;;;;;;4.75;1.42;;;2.70;99.90;;;;;;5114459;27;20437;-79
2023/02/26 06:50:58;;;;;;;2.45;0.82;;;2.80;99.90;;;;;;5113701;28;20020;-78
2023/02/26 06:53:24;;;;;;;2.17;0.70;;;2.80;99.90;;;;;;5114857;28;20016;-78
2023/02/26 06:55:51;;;;;;;3.00;0.50;;;2.80;99.90;;;;;;5113545;28;20027;-78
2023/02/26 06:58:18;;;;;;;1.73;0.50;;;2.70;99.90;;;;;;5114465;28;20016;-78
2023/02/26 07:00:43;;;;;;;1.17;0.60;;;2.70;99.90;;;;;;5113523;28;20499;-78
2023/02/26 07:03:14;;;;;;;1.13;0.60;;;2.80;99.90;;;;;;5113388;28;20020;-78
2023/02/26 07:05:40;;;;;;;2.10;0.60;;;2.80;99.90;;;;;;5114933;28;20024;-79
2023/02/26 07:08:06;;;;;;;1.85;0.57;;;2.70;99.90;;;;;;5113440;28;20035;-78
2023/02/26 07:10:32;;;;;;;2.17;0.70;;;2.70;99.90;;;;;;5114297;28;20024;-78
2023/02/26 07:12:58;;;;;;;3.42;0.60;;;2.70;99.90;;;;;;5113411;28;20031;-78
2023/02/26 07:15:24;;;;;;;0.90;0.40;;;2.70;99.90;;;;;;5112909;28;20024;-80
2023/02/26 07:17:50;;;;;;;1.05;0.50;;;2.60;99.90;;;;;;5114436;28;20487;-80
2023/02/26 07:20:16;;;;;;;3.00;0.60;;;2.60;99.90;;;;;;5114545;28;20571;-80
2023/02/26 07:22:43;;;;;;;1.27;0.55;;;2.60;99.90;;;;;;5113211;28;20073;-80
2023/02/26 07:25:09;;;;;;;1.00;0.57;;;2.70;99.90;;;;;;5112771;28;20069;-80
2023/02/26 07:27:35;;;;;;;1.67;0.57;;;2.60;99.90;;;;;;5114316;28;20032;-80
2023/02/26 07:30:01;;;;;;;3.38;1.10;;;2.60;99.90;;;;;;5112998;28;20027;-78
2023/02/26 07:32:27;;;;;;;1.08;0.60;;;2.60;99.90;;;;;;5113215;28;20051;-79
2023/02/26 07:34:53;;;;;;;1.70;0.50;;;2.70;99.90;;;;;;5114239;28;20454;-79
2023/02/26 07:37:18;;;;;;;2.13;0.68;;;2.60;99.90;;;;;;5112635;28;20028;-78
2023/02/26 07:39:44;;;;;;;0.52;0.43;;;2.60;99.90;;;;;;5112712;28;20111;-78
2023/02/26 07:42:10;;;;;;;2.55;0.80;;;2.60;99.90;;;;;;5113916;28;20491;-78
2023/02/26 07:44:36;;;;;;;1.55;0.63;;;2.70;99.90;;;;;;5113876;28;20488;-78
2023/02/26 07:47:02;;;;;;;2.28;0.52;;;2.70;99.90;;;;;;5112404;28;20062;-78
2023/02/26 07:49:28;;;;;;;2.92;0.98;;;2.70;99.90;;;;;;5099221;28;20024;-79
2023/02/26 07:51:54;;;;;;;1.42;0.50;;;2.70;99.90;;;;;;5098995;28;20395;-77
2023/02/26 07:54:19;;;;;;;0.95;0.50;;;2.80;99.90;;;;;;5098219;28;20035;-77
2023/02/26 07:56:45;;;;;;;1.65;0.40;;;2.90;99.90;;;;;;5100327;28;20399;-78
2023/02/26 07:59:11;;;;;;;1.58;0.57;;;2.90;99.90;;;;;;5098553;28;20016;-78
2023/02/26 08:01:36;;;;;;;0.77;0.40;;;3.00;99.90;;;;;;5100272;28;20123;-77
2023/02/26 08:04:03;;;;;;;1.60;0.50;;;3.00;99.60;;;;;;5099878;28;20051;-79
2023/02/26 08:06:29;;;;;;;0.70;0.40;;;3.10;99.70;;;;;;5100215;28;20024;-78
2023/02/26 08:08:54;;;;;;;1.20;0.50;;;3.10;99.30;;;;;;5099807;28;20129;-78
2023/02/26 08:11:20;;;;;;;2.35;0.52;;;3.10;98.20;;;;;;5099590;28;20028;-78
2023/02/26 08:13:46;;;;;;;1.23;0.60;;;3.20;97.80;;;;;;5099395;28;20502;-78
2023/02/26 08:16:12;;;;;;;1.20;0.93;;;3.20;98.60;;;;;;5099588;28;20077;-79
2023/02/26 08:18:38;;;;;;;2.45;0.55;;;3.30;98.70;;;;;;5098559;28;20025;-80
2023/02/26 08:21:04;;;;;;;1.00;0.40;;;3.30;98.90;;;;;;5098317;28;20028;-77
2023/02/26 08:23:29;;;;;;;1.52;0.60;;;3.30;97.80;;;;;;5099322;28;20027;-77
2023/02/26 08:26:03;;;;;;;1.00;0.35;;;3.40;98.50;;;;;;5099282;28;20017;-78
2023/02/26 08:28:29;;;;;;;0.77;0.40;;;3.40;99.90;;;;;;5099545;28;20070;-78
2023/02/26 08:30:55;;;;;;;0.70;0.40;;;3.50;98.40;;;;;;5098220;28;20021;-78
2023/02/26 08:33:21;;;;;;;1.45;0.40;;;3.50;98.50;;;;;;5098216;28;20035;-77
2023/02/26 08:35:48;;;;;;;1.02;0.57;;;3.60;99.10;;;;;;5099189;28;20016;-79
2023/02/26 08:38:13;;;;;;;1.80;0.55;;;3.70;98.60;;;;;;5097824;28;20403;-78
2023/02/26 08:40:39;;;;;;;0.98;0.47;;;3.60;96.60;;;;;;5099192;28;20020;-77
2023/02/26 08:43:05;;;;;;;0.80;0.40;;;3.70;98.30;;;;;;5085746;28;20043;-79
2023/02/26 08:45:31;;;;;;;2.00;0.40;;;3.70;98.20;;;;;;5099214;28;20012;-79
2023/02/26 08:47:56;;;;;;;2.03;0.65;;;3.80;98.90;;;;;;5097389;28;20044;-79
2023/02/26 08:50:23;;;;;;;1.10;0.50;;;3.80;97.50;;;;;;5098954;28;20522;-79
2023/02/26 08:52:48;;;;;;;1.17;0.35;;;3.80;98.00;;;;;;5099118;28;20031;-78
2023/02/26 08:55:14;;;;;;;1.27;0.50;;;3.80;97.00;;;;;;5097709;28;20024;-79
2023/02/26 08:57:40;;;;;;;1.00;0.47;;;3.80;97.80;;;;;;5098860;28;20020;-79
2023/02/26 09:00:09;;;;;;;1.13;0.52;;;3.80;97.50;;;;;;5096979;28;20422;-79
2023/02/26 09:02:38;;;;;;;0.95;0.50;;;3.90;97.50;;;;;;5099005;28;20027;-78
2023/02/26 09:05:05;;;;;;;1.75;0.40;;;3.90;96.60;;;;;;5098785;28;20465;-78
2023/02/26 09:07:30;;;;;;;0.65;0.40;;;4.00;97.40;;;;;;5098972;28;20024;-78
2023/02/26 09:09:56;;;;;;;0.93;0.50;;;4.00;96.10;;;;;;5098180;28;20074;-78
2023/02/26 09:12:22;;;;;;;1.35;0.47;;;4.00;94.70;;;;;;5098968;28;20487;-78
2023/02/26 09:14:47;;;;;;;1.92;0.50;;;4.10;96.50;;;;;;5098742;28;20556;-77
2023/02/26 09:17:13;;;;;;;1.98;0.40;;;4.10;95.30;;;;;;5098601;28;20165;-78
2023/02/26 09:19:39;;;;;;;0.65;0.45;;;4.10;96.90;;;;;;5097426;28;20023;-77
2023/02/26 09:22:05;;;;;;;0.88;0.30;;;4.20;96.60;;;;;;5098619;28;20027;-77
2023/02/26 09:24:30;;;;;;;2.15;0.32;;;4.20;95.20;;;;;;5096965;28;20024;-78
2023/02/26 09:26:56;;;;;;;1.40;0.45;;;4.20;95.50;;;;;;5098565;28;20085;-77
2023/02/26 09:29:22;;;;;;;1.45;0.40;;;4.30;94.70;;;;;;5097202;28;20028;-77
2023/02/26 09:31:47;;;;;;;0.80;0.40;;;4.30;94.70;;;;;;5098212;28;20034;-78
2023/02/26 09:34:13;;;;;;;0.70;0.30;;;4.40;95.10;;;;;;5097185;28;20052;-76
2023/02/26 09:36:39;;;;;;;0.60;0.40;;;4.40;95.20;;;;;;5098322;28;20081;-78
2023/02/26 09:39:05;;;;;;;0.80;0.40;;;4.40;94.90;;;;;;5097951;28;20020;-78
2023/02/26 09:41:36;;;;;;;1.38;0.57;;;4.50;94.60;;;;;;5096968;28;20012;-78
2023/02/26 09:44:28;;;;;;;1.00;0.63;;;4.50;94.80;;;;;;5097032;28;20076;-78
2023/02/26 09:47:12;;;;;;;0.82;0.40;;;4.60;93.00;;;;;;5093806;28;20051;-78
2023/02/26 09:50:00;;;;;;;1.30;0.40;;;4.60;94.00;;;;;;5095898;28;20054;-78
2023/02/26 09:52:37;;;;;;;1.20;0.60;;;4.60;94.60;;;;;;5097935;28;20024;-79
2023/02/26 09:55:23;;;;;;;0.52;0.22;;;4.70;95.40;;;;;;5097784;28;20027;-78
2023/02/26 09:57:53;;;;;;;0.90;0.50;;;4.80;95.50;;;;;;5098016;28;20032;-78
2023/02/26 10:00:56;;;;;;;1.23;0.50;;;4.80;93.60;;;;;;5097668;28;20024;-77
2023/02/26 10:03:49;;;;;;;1.00;0.43;;;4.80;93.40;;;;;;5015608;28;20030;-78
2023/02/26 10:06:21;;;;;;;1.55;0.40;;;4.90;95.50;;;;;;5095665;28;20067;-78
2023/02/26 10:09:14;;;;;;;1.33;0.47;;;5.00;95.50;;;;;;5097887;28;20030;-78
2023/02/26 10:11:51;;;;;;;0.30;0.20;;;5.10;96.30;;;;;;5097458;28;20043;-78
2023/02/26 10:14:26;;;;;;;1.20;0.40;;;5.10;94.60;;;;;;5096453;28;20028;-79
2023/02/26 10:16:58;;;;;;;1.23;0.28;;;5.10;93.80;;;;;;5097366;28;20024;-80
2023/02/26 10:19:36;;;;;;;0.50;0.20;;;5.20;93.60;;;;;;5094661;28;20032;-81
2023/02/26 10:22:42;;;;;;;0.82;0.40;;;5.20;94.20;;;;;;5088714;28;20376;-81
2023/02/26 10:25:20;;;;;;;0.57;0.22;;;5.30;93.70;;;;;;5090855;28;20109;-73
2023/02/26 10:28:02;;;;;;;2.13;0.40;;;5.40;93.50;;;;;;5091109;28;20016;-72
2023/02/26 10:30:42;;;;;;;1.58;0.40;;;5.50;91.90;;;;;;5097662;28;20035;-72
2023/02/26 10:33:19;;;;;;;2.65;0.70;;;5.60;91.10;;;;;;5097346;28;20030;-71
2023/02/26 10:35:57;;;;;;;1.02;0.35;;;5.60;88.60;;;;;;5093215;28;20039;-70
2023/02/26 10:38:27;;;;;;;1.88;0.35;;;5.70;89.20;;;;;;5097387;28;20024;-76
2023/02/26 10:41:01;;;;;;;0.50;0.25;;;5.70;84.30;;;;;;5093304;28;20455;-75
2023/02/26 10:43:42;;;;;;;0.68;0.30;;;5.70;84.00;;;;;;5095557;28;20028;-75
2023/02/26 10:46:40;;;;;;;2.30;0.35;;;5.80;89.30;;;;;;5096858;28;20030;-73
2023/02/26 10:49:13;;;;;;;0.80;0.20;;;5.80;89.90;;;;;;5089563;28;20036;-73
2023/02/26 10:51:39;;;;;;;0.75;0.50;;;5.80;83.50;;;;;;5095210;28;20021;-72
2023/02/26 10:54:15;;;;;;;1.60;0.30;;;5.90;81.00;;;;;;5094855;28;20041;-73
2023/02/26 10:56:40;;;;;;;3.03;0.50;;;5.90;82.60;;;;;;5096627;28;20055;-75
2023/02/26 10:59:06;;;;;;;1.35;0.40;;;5.90;77.50;;;;;;5095597;28;20024;-74
2023/02/26 11:01:32;;;;;;;0.80;0.30;;;5.90;82.30;;;;;;5095578;28;20025;-74
2023/02/26 11:04:13;;;;;;;1.25;0.40;;;6.00;80.30;;;;;;5097002;28;20031;-74
2023/02/26 11:06:55;;;;;;;0.95;0.30;;;6.00;85.10;;;;;;5095606;28;20020;-77
2023/02/26 11:09:37;;;;;;;1.35;0.40;;;6.10;80.70;;;;;;5095817;28;20078;-76
2023/02/26 11:12:11;;;;;;;1.15;0.40;;;6.10;81.50;;;;;;5094854;28;20037;-76
2023/02/26 11:14:38;;;;;;;1.08;0.28;;;6.10;81.90;;;;;;5095514;28;20113;-76
2023/02/26 11:17:16;;;;;;;0.50;0.28;;;6.10;80.20;;;;;;5096822;28;20039;-76
2023/02/26 11:20:10;;;;;;;0.43;0.30;;;6.20;79.00;;;;;;5095567;28;20028;-75
2023/02/26 11:22:36;;;;;;;1.08;0.40;;;6.20;81.30;;;;;;5096396;28;20479;-73
2023/02/26 11:25:03;;;;;;;1.08;0.30;;;6.20;79.10;;;;;;5098236;28;20483;-72
2023/02/26 11:27:36;;;;;;;1.75;0.50;;;6.30;79.10;;;;;;5094194;28;20529;-72
2023/02/26 11:30:20;;;;;;;1.73;0.52;;;6.30;77.50;;;;;;5094239;28;20483;-74
2023/02/26 11:32:50;;;;;;;0.77;0.45;;;6.30;77.30;;;;;;5094015;28;20032;-75
2023/02/26 11:35:17;;;;;;;2.22;0.40;;;6.40;77.20;;;;;;5096268;28;20028;-74
2023/02/26 11:37:54;;;;;;;0.28;0.22;;;6.50;78.40;;;;;;5098670;28;20034;-72
2023/02/26 11:40:27;;;;;;;0.75;0.30;;;6.50;76.80;;;;;;5100308;28;20020;-71
2023/02/26 11:42:57;;;;;;;0.50;0.40;;;6.60;82.30;;;;;;5100468;28;20016;-71
2023/02/26 11:45:23;;;;;;;2.08;0.40;;;6.70;77.80;;;;;;5100543;28;20031;-71
2023/02/26 11:48:02;;;;;;;2.63;0.55;;;6.70;76.30;;;;;;5100064;28;20064;-71
2023/02/26 11:50:30;;;;;;;1.42;0.47;;;6.60;77.60;;;;;;5100380;28;20028;-71
2023/02/26 11:53:03;;;;;;;2.28;0.50;;;6.50;73.10;;;;;;5100449;28;20119;-72
2023/02/26 11:55:34;;;;;;;1.75;0.50;;;6.40;74.30;;;;;;5096739;28;20032;-71
2023/02/26 11:58:00;;;;;;;1.50;0.60;;;6.40;77.50;;;;;;5095917;28;20032;-69
2023/02/26 12:00:36;;;;;;;1.48;0.40;;;6.50;75.30;;;;;;5098539;28;20031;-70
2023/02/26 12:03:07;;;;;;;1.45;0.60;;;6.40;76.40;;;;;;5098622;28;20070;-70
2023/02/26 12:05:33;;;;;;;2.67;0.55;;;6.40;77.60;;;;;;5098547;28;20031;-70
2023/02/26 12:07:59;;;;;;;1.65;0.40;;;6.40;75.60;;;;;;5099780;28;20028;-70
2023/02/26 12:10:47;;;;;;;1.30;0.52;;;6.50;75.70;;;;;;5099624;28;20028;-70
2023/02/26 12:13:49;;;;;;;0.82;0.50;;;6.50;75.90;;;;;;5098303;28;20455;-71
2023/02/26 12:16:24;;;;;;;1.35;0.40;;;6.50;72.70;;;;;;5099718;28;20454;-72
2023/02/26 12:19:08;;;;;;;0.55;0.30;;;6.70;72.70;;;;;;5099111;28;20028;-67
2023/02/26 12:21:54;;;;;;;1.17;0.40;;;6.70;71.30;;;;;;5099559;28;20032;-68
2023/02/26 12:24:22;;;;;;;0.63;0.30;;;6.80;72.90;;;;;;5099443;28;20016;-68
2023/02/26 12:27:22;;;;;;;0.75;0.60;;;6.90;72.50;;;;;;5099320;28;20028;-69
2023/02/26 12:30:06;;;;;;;1.60;0.63;;;7.00;72.70;;;;;;5099463;28;20023;-70
2023/02/26 12:32:37;;;;;;;2.15;0.60;;;7.10;72.40;;;;;;5099184;28;20395;-69
2023/02/26 12:35:32;;;;;;;1.63;0.57;;;7.10;70.00;;;;;;5099352;28;20024;-68
2023/02/26 12:38:06;;;;;;;0.60;0.30;;;7.00;67.20;;;;;;5081247;28;20054;-68
2023/02/26 12:40:43;;;;;;;1.85;0.40;;;7.00;67.50;;;;;;5097778;28;20046;-69
2023/02/26 12:43:33;;;;;;;0.65;0.30;;;7.00;64.80;;;;;;5086363;28;20081;-69
2023/02/26 12:46:24;;;;;;;1.30;0.40;;;7.00;65.70;;;;;;5097744;28;20043;-68
2023/02/26 12:48:55;;;;;;;1.13;0.30;;;7.10;62.60;;;;;;5098806;28;20067;-68
2023/02/26 12:51:29;;;;;;;1.63;0.43;;;7.10;59.70;;;;;;5099158;28;20028;-68
2023/02/26 12:54:21;;;;;;;1.50;0.40;;;7.20;58.40;;;;;;5098538;28;20020;-68
2023/02/26 12:57:02;;;;;;;1.33;0.57;;;7.10;56.90;;;;;;5099072;28;20138;-68
2023/02/26 12:59:42;;;;;;;0.50;0.30;;;7.10;57.20;;;;;;5098910;28;20031;-68
2023/02/26 13:02:25;;;;;;;0.57;0.50;;;7.20;59.60;;;;;;5098643;28;20522;-69
2023/02/26 13:04:54;;;;;;;0.80;0.40;;;7.20;60.40;;;;;;5098423;28;20023;-68
2023/02/26 13:07:48;;;;;;;0.70;0.40;;;7.30;58.50;;;;;;5098550;28;20085;-68
2023/02/26 13:10:37;;;;;;;1.33;0.30;;;7.30;58.00;;;;;;5097839;28;20035;-68
2023/02/26 13:13:09;;;;;;;1.02;0.40;;;7.30;59.30;;;;;;5096541;28;20130;-68
2023/02/26 13:15:53;;;;;;;0.95;0.40;;;7.30;58.00;;;;;;5092536;28;20058;-66
2023/02/26 13:18:38;;;;;;;1.27;0.38;;;7.20;57.50;;;;;;5098254;28;20035;-67
2023/02/26 13:21:08;;;;;;;0.75;0.43;;;7.20;58.20;;;;;;5096129;28;20032;-66
2023/02/26 13:23:59;;;;;;;1.50;0.63;;;7.20;58.80;;;;;;5098193;28;20035;-66
2023/02/26 13:26:25;;;;;;;0.70;0.40;;;7.20;57.50;;;;;;5096991;28;20073;-67
2023/02/26 13:28:58;;;;;;;2.00;0.60;;;7.20;55.00;;;;;;5098143;28;20480;-68
2023/02/26 13:31:42;;;;;;;0.98;0.63;;;7.10;54.50;;;;;;5098389;28;20103;-65
2023/02/26 13:34:14;;;;;;;;;;;7.10;53.90;;;;;;5098584;28;20103;-66
2023/02/26 13:36:41;;;;;;;2.28;0.40;;;7.10;58.10;;;;;;5098274;28;19951;-68